PSA CRJ7 near Norfolk on Jun 5th 2017, cracked windshield

Last Update: June 6, 2017 / 20:37:45 GMT/Zulu time

Bookmark this article
Incident Facts

Date of incident
Jun 5, 2017

Classification
Incident

Flight number
AA-5149

Aircraft Registration
N710PS

Aircraft Type
Canadair CRJ-700

ICAO Type Designator
CRJ7

Airport ICAO Code
KPHF

A PSA Airlines Canadair CRJ-700 on behalf of American Airlines, registration N710PS performing flight AA-5149 from Charlotte,NC to Newport News,VA (USA) with 77 people on board, was on approach to Newport News at about 2000 feet when the aircraft went around due to a cracked windshield. The crew decided to divert to Norfolk,VA (USA), located about 20nm southeast of Newport News, and landed the aircraft safely in Norfolk about 10 minutes later.



Metars Newport News:
KPHF 051954Z AUTO 29008KT 1/2SM VCTS +RA FG FEW004 OVC010 22/21 A2972 RMK AO2 LTG DSNT NE TSB23E52 SLP062 P0252 T02170206=
KPHF 051949Z AUTO 28009KT 1/2SM +TSRA FG FEW006 OVC010 22/21 A2971 RMK AO2 LTG DSNT NE TSB23 P0245=
KPHF 051923Z AUTO 36011KT 1/4SM +TSRA FG BKN005 OVC015 22/22 A2970 RMK AO2 LTG DSNT SW AND W TSB23 P0114 T02220217=
KPHF 051918Z AUTO 30013KT 1/4SM +RA FG BKN005 BKN015 OVC025 23/22 A2971 RMK AO2 LTG DSNT W P0058 T02280217=
KPHF 051913Z AUTO VRB03KT 3/4SM +RA BR FEW005 BKN015 OVC044 23/22 A2971 RMK AO2 LTG DSNT W AND NW PRESRR P0019 T02280217=
KPHF 051909Z AUTO 07008KT 2 1/2SM +RA BR FEW005 BKN024 OVC044 23/22 A2967 RMK AO2 LTG DSNT W AND NW P0005 T02280217=
KPHF 051854Z 06009KT 8SM -RA FEW005 BKN041 OVC080 23/22 A2967 RMK AO2 LTG DSNT W AND NW SLP046 P0007 T02330222=
KPHF 051754Z 08004KT 7SM -RA FEW029 BKN050 BKN070 24/22 A2973 RMK AO2 SLP066 P0007 60037 T02390222 10256 20228 58028=
KPHF 051707Z 31004KT 3SM RA BR SCT019 BKN030 OVC070 23/22 A2976 RMK AO2 P0004 T02330222=
KPHF 051704Z 31004KT 2SM -RA BR FEW015 BKN024 OVC050 23/22 A2976 RMK AO2 P0004 T02330222=
KPHF 051654Z VRB04KT 1/2SM +RA FG BKN015 BKN019 OVC040 23/22 A2977 RMK AO2 RAE09B29 SLP080 P0030 T02280217=
KPHF 051645Z 30004KT 1 1/4SM RA BKN019 BKN029 OVC050 24/21 A2977 RMK AO2 RAE09B29 P0008 T02390211=
KPHF 051635Z 28005KT 2 1/2SM RA BKN019 BKN029 BKN050 24/21 A2977 RMK AO2 RAE09B29 P0002 T02440211=
KPHF 051554Z 22006KT 10SM -RA FEW019 SCT090 BKN110 25/21 A2979 RMK AO2 SLP088 P0000 T02500211=
KPHF 051522Z 24010KT 10SM -RA SCT021 BKN038 OVC110 25/22 A2981 RMK AO2 P0000 T02500217=
KPHF 051515Z 24008KT 10SM -RA BKN021 BKN036 OVC110 24/22 A2981 RMK AO2 P0000 T02440217=
KPHF 051454Z 24008KT 10SM -RA SCT019 BKN100 OVC110 25/21 A2981 RMK AO2 RAB50 SLP095 P0000 60000 T02500211 58008=
KPHF 051418Z 26009KT 10SM SCT019 SCT025 BKN032 25/21 A2982 RMK AO2 T02500211=
KPHF 051407Z 25009KT 10SM FEW017 SCT025 BKN029 25/22 A2983 RMK AO2 T02500217=
KPHF 051400Z 25008KT 10SM SCT017 BKN030 OVC110 24/21 A2983 RMK AO2 T02440211=
KPHF 051354Z 26010KT 10SM BKN010 BKN023 BKN029 24/21 A2983 RMK AO2 RAE42 SLP101 P0000 T02440211=

Metars Norfolk:
KORF 051851Z 18007KT 10SM FEW023 SCT075 BKN085 27/22 A2970 RMK AO2 RAB02E18 SLP056 P0000 T02670217=
KORF 051751Z 20007KT 10SM FEW055 SCT100 SCT120 27/22 A2974 RMK AO2 RAB1653E36 SLP069 P0002 60002 T02670217 10283 20244 58023=
KORF 051651Z 19011KT 10SM SCT030 BKN090 BKN110 28/21 A2976 RMK AO2 SLP077 T02780211=
KORF 051622Z 22011KT 10SM FEW020 SCT028 BKN032 28/22 A2978 RMK AO2 T02830217=
KORF 051559Z 25009KT 10SM BKN019 BKN034 OVC110 27/22 A2980 RMK AO2 T02670222=
KORF 051551Z 21011KT 10SM SCT017 BKN034 OVC110 27/22 A2980 RMK AO2 RAB41E51 SLP091 P0000 T02670222=
KORF 051548Z 21011KT 10SM -RA BKN019 BKN034 OVC110 26/22 A2980 RMK AO2 RAB41 P0000=
KORF 051539Z 24009KT 10SM SCT017 BKN032 OVC110 26/22 A2981 RMK AO2 T02610217=
KORF 051451Z 23009KT 10SM SCT018 BKN026 OVC110 26/22 A2982 RMK AO2 RAE29 SLP097 P0000 60000 T02610222 58006=
Aircraft Registration Data
Registration mark
N710PS
Country of Registration
United States
Date of Registration
FngjhqAkknjbgqie Subscribe to unlock
Manufacturer
BOMBARDIER INC
Aircraft Model / Type
CL-600-2C10
Number of Seats
ICAO Aircraft Type
CRJ7
Year of Manufacture
Serial Number
Aircraft Address / Mode S Code (HEX)
Engine Count
Engine Manufacturer
Engine Model
Engine Type
Pounds of Thrust
Main Owner
FfffheihifmhdecnfpcqjAnmjfpqmAcpgmAjiAhemklbfpmkqmAlbhmppcchfAjkbjfjeifenhAefhniAlpkdjjqeqmAhme Subscribe to unlock
Incident Facts

Date of incident
Jun 5, 2017

Classification
Incident

Flight number
AA-5149

Aircraft Registration
N710PS

Aircraft Type
Canadair CRJ-700

ICAO Type Designator
CRJ7

Airport ICAO Code
KPHF

This article is published under license from Avherald.com. © of text by Avherald.com.
Article source

You can read 2 more free articles without a subscription.

Subscribe now and continue reading without any limits!

Are you a subscriber? Login
Subscribe

Read unlimited articles and receive our daily update briefing. Gain better insights into what is happening in commercial aviation safety.

Free newsletter

Want to know more and stay ahead? Get our free weekly newsletter and join 5603 existing subscribers.

By subscribing, you accept our terms and conditions and confirm that you've read our privacy policy.

Send tip

Support AeroInside by sending a small tip amount.

Related articles

Newest articles

Subscribe today

Are you researching aviation incidents? Get access to AeroInside Insights, unlimited read access and receive the daily newsletter.

Pick your plan and subscribe

Partner

Blockaviation logo

A new way to document and demonstrate airworthiness compliance and aircraft value. Find out more.

Virtual Speech logo

ELITE Simulation Solutions is a leading global provider of Flight Simulation Training Devices, IFR training software as well as flight controls and related services. Find out more.

Get updates

Never miss an article from AeroInside. Subscribe to our free weekly newsletter and join 5603 existing subscribers.

By subscribing, you accept our terms and conditions and that you've read our privacy policy.

AeroInside Blog
Popular aircraft
Airbus A320
Boeing 737-800
Boeing 737-800 MAX
Popular airlines
American Airlines
United
Delta
Air Canada
Lufthansa
British Airways